sensor_id;sensor_type;location;lat;lon;timestamp;P1;durP1;ratioP1;P2;durP2;ratioP2
60464;SDS011;46314;52.392;9.758;2023-07-16T00:00:21;4.22;;;2.22;;
60464;SDS011;46314;52.392;9.758;2023-07-16T00:02:48;3.25;;;2.53;;
60464;SDS011;46314;52.392;9.758;2023-07-16T00:05:15;3.17;;;1.75;;
60464;SDS011;46314;52.392;9.758;2023-07-16T00:07:42;3.00;;;1.60;;
60464;SDS011;46314;52.392;9.758;2023-07-16T00:10:09;6.07;;;1.88;;
60464;SDS011;46314;52.392;9.758;2023-07-16T00:12:37;5.32;;;2.30;;
60464;SDS011;46314;52.392;9.758;2023-07-16T00:15:05;3.67;;;1.80;;
60464;SDS011;46314;52.392;9.758;2023-07-16T00:17:32;3.95;;;2.40;;
60464;SDS011;46314;52.392;9.758;2023-07-16T00:20:00;4.15;;;2.17;;
60464;SDS011;46314;52.392;9.758;2023-07-16T00:22:27;4.85;;;2.15;;
60464;SDS011;46314;52.392;9.758;2023-07-16T00:24:53;3.63;;;1.98;;
60464;SDS011;46314;52.392;9.758;2023-07-16T00:27:20;3.65;;;2.17;;
60464;SDS011;46314;52.392;9.758;2023-07-16T00:29:48;4.97;;;2.42;;
60464;SDS011;46314;52.392;9.758;2023-07-16T00:32:14;3.47;;;1.80;;
60464;SDS011;46314;52.392;9.758;2023-07-16T00:34:41;3.53;;;1.65;;
60464;SDS011;46314;52.392;9.758;2023-07-16T00:37:07;3.30;;;2.13;;
60464;SDS011;46314;52.392;9.758;2023-07-16T00:39:34;4.75;;;2.35;;
60464;SDS011;46314;52.392;9.758;2023-07-16T00:42:00;2.30;;;1.70;;
60464;SDS011;46314;52.392;9.758;2023-07-16T00:44:27;3.25;;;2.30;;
60464;SDS011;46314;52.392;9.758;2023-07-16T00:46:54;4.68;;;1.98;;
60464;SDS011;46314;52.392;9.758;2023-07-16T00:49:23;5.85;;;2.28;;
60464;SDS011;46314;52.392;9.758;2023-07-16T00:51:50;4.00;;;1.77;;
60464;SDS011;46314;52.392;9.758;2023-07-16T00:54:18;3.22;;;2.15;;
60464;SDS011;46314;52.392;9.758;2023-07-16T00:56:45;3.13;;;1.92;;
60464;SDS011;46314;52.392;9.758;2023-07-16T00:59:12;5.60;;;2.03;;
60464;SDS011;46314;52.392;9.758;2023-07-16T01:01:39;3.08;;;1.90;;
60464;SDS011;46314;52.392;9.758;2023-07-16T01:04:07;3.45;;;1.90;;
60464;SDS011;46314;52.392;9.758;2023-07-16T01:06:33;4.10;;;2.08;;
60464;SDS011;46314;52.392;9.758;2023-07-16T01:09:03;2.55;;;1.60;;
60464;SDS011;46314;52.392;9.758;2023-07-16T01:11:33;1.55;;;1.45;;
60464;SDS011;46314;52.392;9.758;2023-07-16T01:14:01;3.55;;;2.03;;
60464;SDS011;46314;52.392;9.758;2023-07-16T01:16:28;2.65;;;1.50;;
60464;SDS011;46314;52.392;9.758;2023-07-16T01:18:55;3.00;;;1.80;;
60464;SDS011;46314;52.392;9.758;2023-07-16T01:21:23;3.38;;;1.92;;
60464;SDS011;46314;52.392;9.758;2023-07-16T01:24:05;3.33;;;2.13;;
60464;SDS011;46314;52.392;9.758;2023-07-16T01:29:44;3.58;;;1.83;;
60464;SDS011;46314;52.392;9.758;2023-07-16T01:32:15;3.85;;;2.40;;
60464;SDS011;46314;52.392;9.758;2023-07-16T01:34:43;3.25;;;1.90;;
60464;SDS011;46314;52.392;9.758;2023-07-16T01:37:11;4.55;;;2.20;;
60464;SDS011;46314;52.392;9.758;2023-07-16T01:39:37;4.22;;;2.10;;
60464;SDS011;46314;52.392;9.758;2023-07-16T01:42:04;4.38;;;2.55;;
60464;SDS011;46314;52.392;9.758;2023-07-16T01:44:31;4.78;;;2.20;;
60464;SDS011;46314;52.392;9.758;2023-07-16T01:47:03;3.30;;;1.98;;
60464;SDS011;46314;52.392;9.758;2023-07-16T01:49:32;3.15;;;1.58;;
60464;SDS011;46314;52.392;9.758;2023-07-16T01:51:59;2.88;;;1.70;;
60464;SDS011;46314;52.392;9.758;2023-07-16T01:54:26;2.38;;;1.60;;
60464;SDS011;46314;52.392;9.758;2023-07-16T01:56:52;3.00;;;1.88;;
60464;SDS011;46314;52.392;9.758;2023-07-16T01:59:19;3.03;;;1.65;;
60464;SDS011;46314;52.392;9.758;2023-07-16T02:01:45;5.07;;;2.20;;
60464;SDS011;46314;52.392;9.758;2023-07-16T02:04:13;2.25;;;1.88;;
60464;SDS011;46314;52.392;9.758;2023-07-16T02:06:40;3.05;;;2.13;;
60464;SDS011;46314;52.392;9.758;2023-07-16T02:09:06;3.90;;;2.50;;
60464;SDS011;46314;52.392;9.758;2023-07-16T02:11:33;3.47;;;2.15;;
60464;SDS011;46314;52.392;9.758;2023-07-16T02:13:59;2.58;;;1.92;;
60464;SDS011;46314;52.392;9.758;2023-07-16T02:16:26;3.70;;;1.60;;
60464;SDS011;46314;52.392;9.758;2023-07-16T02:18:52;4.43;;;1.77;;
60464;SDS011;46314;52.392;9.758;2023-07-16T02:21:20;3.15;;;1.98;;
60464;SDS011;46314;52.392;9.758;2023-07-16T02:23:47;6.03;;;2.10;;
60464;SDS011;46314;52.392;9.758;2023-07-16T02:26:13;3.47;;;1.75;;
60464;SDS011;46314;52.392;9.758;2023-07-16T02:28:40;2.97;;;1.85;;
60464;SDS011;46314;52.392;9.758;2023-07-16T02:31:07;4.85;;;2.45;;
60464;SDS011;46314;52.392;9.758;2023-07-16T02:33:34;3.83;;;2.17;;
60464;SDS011;46314;52.392;9.758;2023-07-16T02:36:00;2.95;;;1.75;;
60464;SDS011;46314;52.392;9.758;2023-07-16T02:38:28;4.32;;;2.22;;
60464;SDS011;46314;52.392;9.758;2023-07-16T02:40:55;3.92;;;1.85;;
60464;SDS011;46314;52.392;9.758;2023-07-16T02:43:21;3.78;;;2.00;;
60464;SDS011;46314;52.392;9.758;2023-07-16T02:45:48;5.53;;;2.03;;
60464;SDS011;46314;52.392;9.758;2023-07-16T02:48:14;2.83;;;1.90;;
60464;SDS011;46314;52.392;9.758;2023-07-16T02:50:41;3.42;;;1.90;;
60464;SDS011;46314;52.392;9.758;2023-07-16T02:53:07;3.90;;;2.22;;
60464;SDS011;46314;52.392;9.758;2023-07-16T02:55:35;4.13;;;2.00;;
60464;SDS011;46314;52.392;9.758;2023-07-16T02:58:02;4.40;;;2.60;;
60464;SDS011;46314;52.392;9.758;2023-07-16T03:00:29;4.05;;;1.90;;
60464;SDS011;46314;52.392;9.758;2023-07-16T03:02:55;3.42;;;2.28;;
60464;SDS011;46314;52.392;9.758;2023-07-16T03:05:22;4.65;;;2.65;;
60464;SDS011;46314;52.392;9.758;2023-07-16T03:07:48;3.85;;;1.70;;
60464;SDS011;46314;52.392;9.758;2023-07-16T03:10:15;5.22;;;2.20;;
60464;SDS011;46314;52.392;9.758;2023-07-16T03:12:43;4.22;;;2.38;;
60464;SDS011;46314;52.392;9.758;2023-07-16T03:15:10;2.58;;;1.98;;
60464;SDS011;46314;52.392;9.758;2023-07-16T03:17:36;6.45;;;2.35;;
60464;SDS011;46314;52.392;9.758;2023-07-16T03:20:03;3.45;;;2.28;;
60464;SDS011;46314;52.392;9.758;2023-07-16T03:22:30;4.68;;;2.40;;
60464;SDS011;46314;52.392;9.758;2023-07-16T03:24:57;3.75;;;2.30;;
60464;SDS011;46314;52.392;9.758;2023-07-16T03:27:24;2.17;;;1.90;;
60464;SDS011;46314;52.392;9.758;2023-07-16T03:29:52;4.30;;;2.33;;
60464;SDS011;46314;52.392;9.758;2023-07-16T03:32:18;3.70;;;2.13;;
60464;SDS011;46314;52.392;9.758;2023-07-16T03:34:45;3.55;;;2.20;;
60464;SDS011;46314;52.392;9.758;2023-07-16T03:37:11;3.90;;;2.10;;
60464;SDS011;46314;52.392;9.758;2023-07-16T03:39:38;3.25;;;2.35;;
60464;SDS011;46314;52.392;9.758;2023-07-16T03:42:04;4.00;;;2.00;;
60464;SDS011;46314;52.392;9.758;2023-07-16T03:44:31;4.13;;;2.42;;
60464;SDS011;46314;52.392;9.758;2023-07-16T03:46:59;3.83;;;2.17;;
60464;SDS011;46314;52.392;9.758;2023-07-16T03:49:26;3.15;;;2.05;;
60464;SDS011;46314;52.392;9.758;2023-07-16T03:51:53;6.45;;;2.53;;
60464;SDS011;46314;52.392;9.758;2023-07-16T03:54:19;2.28;;;2.08;;
60464;SDS011;46314;52.392;9.758;2023-07-16T03:56:46;6.30;;;3.05;;
60464;SDS011;46314;52.392;9.758;2023-07-16T03:59:12;4.57;;;2.38;;
60464;SDS011;46314;52.392;9.758;2023-07-16T04:01:39;4.55;;;2.55;;
60464;SDS011;46314;52.392;9.758;2023-07-16T04:04:07;9.07;;;2.50;;
60464;SDS011;46314;52.392;9.758;2023-07-16T04:06:33;3.00;;;1.98;;
60464;SDS011;46314;52.392;9.758;2023-07-16T04:09:00;4.47;;;2.67;;
60464;SDS011;46314;52.392;9.758;2023-07-16T04:11:26;3.75;;;2.47;;
60464;SDS011;46314;52.392;9.758;2023-07-16T04:13:53;4.35;;;2.80;;
60464;SDS011;46314;52.392;9.758;2023-07-16T04:16:19;6.00;;;3.28;;
60464;SDS011;46314;52.392;9.758;2023-07-16T04:18:46;3.38;;;2.53;;
60464;SDS011;46314;52.392;9.758;2023-07-16T04:21:14;3.38;;;2.33;;
60464;SDS011;46314;52.392;9.758;2023-07-16T04:23:41;3.08;;;2.10;;
60464;SDS011;46314;52.392;9.758;2023-07-16T04:26:07;4.75;;;2.70;;
60464;SDS011;46314;52.392;9.758;2023-07-16T04:28:34;4.63;;;2.75;;
60464;SDS011;46314;52.392;9.758;2023-07-16T04:31:00;3.38;;;2.25;;
60464;SDS011;46314;52.392;9.758;2023-07-16T04:33:27;3.75;;;2.20;;
60464;SDS011;46314;52.392;9.758;2023-07-16T04:35:53;3.67;;;2.25;;
60464;SDS011;46314;52.392;9.758;2023-07-16T04:38:21;3.67;;;2.20;;
60464;SDS011;46314;52.392;9.758;2023-07-16T04:40:48;4.03;;;2.53;;
60464;SDS011;46314;52.392;9.758;2023-07-16T04:43:14;3.45;;;2.67;;
60464;SDS011;46314;52.392;9.758;2023-07-16T04:45:41;4.85;;;2.75;;
60464;SDS011;46314;52.392;9.758;2023-07-16T04:48:10;3.33;;;2.70;;
60464;SDS011;46314;52.392;9.758;2023-07-16T04:50:36;4.53;;;2.42;;
60464;SDS011;46314;52.392;9.758;2023-07-16T04:53:03;4.40;;;2.75;;
60464;SDS011;46314;52.392;9.758;2023-07-16T04:55:34;3.40;;;2.42;;
60464;SDS011;46314;52.392;9.758;2023-07-16T04:58:01;4.32;;;2.60;;
60464;SDS011;46314;52.392;9.758;2023-07-16T05:00:27;3.05;;;2.15;;
60464;SDS011;46314;52.392;9.758;2023-07-16T05:02:54;4.18;;;2.92;;
60464;SDS011;46314;52.392;9.758;2023-07-16T05:05:21;3.22;;;2.53;;
60464;SDS011;46314;52.392;9.758;2023-07-16T05:07:47;3.13;;;2.63;;
60464;SDS011;46314;52.392;9.758;2023-07-16T05:10:14;3.42;;;2.15;;
60464;SDS011;46314;52.392;9.758;2023-07-16T05:12:42;3.10;;;2.20;;
60464;SDS011;46314;52.392;9.758;2023-07-16T05:15:09;5.25;;;2.72;;
60464;SDS011;46314;52.392;9.758;2023-07-16T05:17:36;4.55;;;2.42;;
60464;SDS011;46314;52.392;9.758;2023-07-16T05:20:03;3.55;;;2.47;;
60464;SDS011;46314;52.392;9.758;2023-07-16T05:22:31;4.65;;;2.60;;
60464;SDS011;46314;52.392;9.758;2023-07-16T05:24:58;6.40;;;2.80;;
60464;SDS011;46314;52.392;9.758;2023-07-16T05:27:25;4.70;;;2.58;;
60464;SDS011;46314;52.392;9.758;2023-07-16T05:29:53;4.45;;;2.63;;
60464;SDS011;46314;52.392;9.758;2023-07-16T05:32:19;3.25;;;1.90;;
60464;SDS011;46314;52.392;9.758;2023-07-16T05:34:46;3.28;;;2.30;;
60464;SDS011;46314;52.392;9.758;2023-07-16T05:37:13;3.75;;;2.50;;
60464;SDS011;46314;52.392;9.758;2023-07-16T05:39:39;4.53;;;2.45;;
60464;SDS011;46314;52.392;9.758;2023-07-16T05:42:06;3.03;;;1.73;;
60464;SDS011;46314;52.392;9.758;2023-07-16T05:44:33;3.33;;;2.03;;
60464;SDS011;46314;52.392;9.758;2023-07-16T05:47:01;3.58;;;2.42;;
60464;SDS011;46314;52.392;9.758;2023-07-16T05:49:27;2.88;;;2.10;;
60464;SDS011;46314;52.392;9.758;2023-07-16T05:51:54;5.40;;;2.25;;
60464;SDS011;46314;52.392;9.758;2023-07-16T05:54:21;4.95;;;2.35;;
60464;SDS011;46314;52.392;9.758;2023-07-16T05:56:48;5.55;;;2.25;;
60464;SDS011;46314;52.392;9.758;2023-07-16T05:59:14;6.07;;;2.15;;
60464;SDS011;46314;52.392;9.758;2023-07-16T06:01:41;6.03;;;2.60;;
60464;SDS011;46314;52.392;9.758;2023-07-16T06:04:09;4.43;;;2.10;;
60464;SDS011;46314;52.392;9.758;2023-07-16T06:06:36;3.85;;;2.13;;
60464;SDS011;46314;52.392;9.758;2023-07-16T06:09:02;4.60;;;2.03;;
60464;SDS011;46314;52.392;9.758;2023-07-16T06:11:29;5.95;;;2.70;;
60464;SDS011;46314;52.392;9.758;2023-07-16T06:13:55;5.55;;;2.38;;
60464;SDS011;46314;52.392;9.758;2023-07-16T06:16:22;6.07;;;3.13;;
60464;SDS011;46314;52.392;9.758;2023-07-16T06:18:48;5.15;;;2.90;;
60464;SDS011;46314;52.392;9.758;2023-07-16T06:21:16;7.80;;;3.33;;
60464;SDS011;46314;52.392;9.758;2023-07-16T06:23:43;4.07;;;2.38;;
60464;SDS011;46314;52.392;9.758;2023-07-16T06:26:10;4.00;;;2.10;;
60464;SDS011;46314;52.392;9.758;2023-07-16T06:28:36;5.00;;;2.42;;
60464;SDS011;46314;52.392;9.758;2023-07-16T06:31:03;5.18;;;2.80;;
60464;SDS011;46314;52.392;9.758;2023-07-16T06:33:29;5.03;;;2.80;;
60464;SDS011;46314;52.392;9.758;2023-07-16T06:35:56;5.28;;;2.70;;
60464;SDS011;46314;52.392;9.758;2023-07-16T06:38:23;3.38;;;2.33;;
60464;SDS011;46314;52.392;9.758;2023-07-16T06:40:54;5.78;;;2.10;;
60464;SDS011;46314;52.392;9.758;2023-07-16T06:43:21;4.10;;;2.92;;
60464;SDS011;46314;52.392;9.758;2023-07-16T06:45:48;6.05;;;2.65;;
60464;SDS011;46314;52.392;9.758;2023-07-16T06:48:15;5.38;;;2.63;;
60464;SDS011;46314;52.392;9.758;2023-07-16T06:50:41;5.45;;;2.75;;
60464;SDS011;46314;52.392;9.758;2023-07-16T06:53:08;4.88;;;2.38;;
60464;SDS011;46314;52.392;9.758;2023-07-16T06:55:36;6.68;;;2.65;;
60464;SDS011;46314;52.392;9.758;2023-07-16T06:58:02;7.05;;;2.55;;
60464;SDS011;46314;52.392;9.758;2023-07-16T07:00:29;5.00;;;2.60;;
60464;SDS011;46314;52.392;9.758;2023-07-16T07:02:55;4.90;;;2.80;;
60464;SDS011;46314;52.392;9.758;2023-07-16T07:05:22;7.53;;;2.95;;
60464;SDS011;46314;52.392;9.758;2023-07-16T07:07:48;3.90;;;2.65;;
60464;SDS011;46314;52.392;9.758;2023-07-16T07:10:15;4.57;;;2.70;;
60464;SDS011;46314;52.392;9.758;2023-07-16T07:12:43;4.07;;;3.10;;
60464;SDS011;46314;52.392;9.758;2023-07-16T07:15:10;10.35;;;3.20;;
60464;SDS011;46314;52.392;9.758;2023-07-16T07:17:36;3.40;;;2.38;;
60464;SDS011;46314;52.392;9.758;2023-07-16T07:20:03;8.07;;;2.72;;
60464;SDS011;46314;52.392;9.758;2023-07-16T07:22:31;2.97;;;2.15;;
60464;SDS011;46314;52.392;9.758;2023-07-16T07:24:58;4.88;;;2.50;;
60464;SDS011;46314;52.392;9.758;2023-07-16T07:27:24;6.22;;;3.10;;
60464;SDS011;46314;52.392;9.758;2023-07-16T07:29:52;4.97;;;3.00;;
60464;SDS011;46314;52.392;9.758;2023-07-16T07:32:19;5.30;;;3.13;;
60464;SDS011;46314;52.392;9.758;2023-07-16T07:34:45;5.75;;;2.83;;
60464;SDS011;46314;52.392;9.758;2023-07-16T07:37:12;2.60;;;2.28;;
60464;SDS011;46314;52.392;9.758;2023-07-16T07:39:38;5.90;;;3.42;;
60464;SDS011;46314;52.392;9.758;2023-07-16T07:42:05;6.70;;;3.30;;
60464;SDS011;46314;52.392;9.758;2023-07-16T07:44:32;6.07;;;3.03;;
60464;SDS011;46314;52.392;9.758;2023-07-16T07:47:00;5.25;;;2.80;;
60464;SDS011;46314;52.392;9.758;2023-07-16T07:49:26;7.90;;;3.58;;
60464;SDS011;46314;52.392;9.758;2023-07-16T07:51:53;5.03;;;2.78;;
60464;SDS011;46314;52.392;9.758;2023-07-16T07:54:19;5.07;;;2.78;;
60464;SDS011;46314;52.392;9.758;2023-07-16T07:56:46;5.82;;;3.08;;
60464;SDS011;46314;52.392;9.758;2023-07-16T07:59:13;7.43;;;3.25;;
60464;SDS011;46314;52.392;9.758;2023-07-16T08:01:39;5.95;;;3.55;;
60464;SDS011;46314;52.392;9.758;2023-07-16T08:04:07;4.85;;;3.17;;
60464;SDS011;46314;52.392;9.758;2023-07-16T08:06:34;8.30;;;3.78;;
60464;SDS011;46314;52.392;9.758;2023-07-16T08:09:00;4.35;;;3.22;;
60464;SDS011;46314;52.392;9.758;2023-07-16T08:11:27;7.88;;;3.58;;
60464;SDS011;46314;52.392;9.758;2023-07-16T08:13:53;6.75;;;3.42;;
60464;SDS011;46314;52.392;9.758;2023-07-16T08:16:20;7.75;;;3.13;;
60464;SDS011;46314;52.392;9.758;2023-07-16T08:18:46;8.20;;;3.20;;
60464;SDS011;46314;52.392;9.758;2023-07-16T08:21:14;7.47;;;3.40;;
60464;SDS011;46314;52.392;9.758;2023-07-16T08:23:41;5.10;;;3.10;;
60464;SDS011;46314;52.392;9.758;2023-07-16T08:26:07;6.90;;;3.80;;
60464;SDS011;46314;52.392;9.758;2023-07-16T08:28:34;5.00;;;3.67;;
60464;SDS011;46314;52.392;9.758;2023-07-16T08:31:00;6.40;;;3.10;;
60464;SDS011;46314;52.392;9.758;2023-07-16T08:33:27;4.90;;;3.47;;
60464;SDS011;46314;52.392;9.758;2023-07-16T08:35:53;5.82;;;3.75;;
60464;SDS011;46314;52.392;9.758;2023-07-16T08:38:21;4.60;;;3.33;;
60464;SDS011;46314;52.392;9.758;2023-07-16T08:40:47;5.07;;;2.90;;
60464;SDS011;46314;52.392;9.758;2023-07-16T08:43:14;6.60;;;3.30;;
60464;SDS011;46314;52.392;9.758;2023-07-16T08:45:42;5.47;;;3.00;;
60464;SDS011;46314;52.392;9.758;2023-07-16T08:48:10;4.82;;;3.08;;
60464;SDS011;46314;52.392;9.758;2023-07-16T08:50:37;6.20;;;3.95;;
60464;SDS011;46314;52.392;9.758;2023-07-16T08:53:04;6.18;;;3.40;;
60464;SDS011;46314;52.392;9.758;2023-07-16T08:55:32;4.72;;;3.25;;
60464;SDS011;46314;52.392;9.758;2023-07-16T08:57:59;6.55;;;3.40;;
60464;SDS011;46314;52.392;9.758;2023-07-16T09:00:27;5.07;;;3.00;;
60464;SDS011;46314;52.392;9.758;2023-07-16T09:02:55;4.28;;;2.60;;
60464;SDS011;46314;52.392;9.758;2023-07-16T09:05:22;5.65;;;3.42;;
60464;SDS011;46314;52.392;9.758;2023-07-16T09:08:04;8.20;;;3.30;;
60464;SDS011;46314;52.392;9.758;2023-07-16T09:10:32;3.65;;;2.67;;
60464;SDS011;46314;52.392;9.758;2023-07-16T09:12:58;5.75;;;2.92;;
60464;SDS011;46314;52.392;9.758;2023-07-16T09:15:27;5.88;;;2.92;;
60464;SDS011;46314;52.392;9.758;2023-07-16T09:17:55;6.00;;;3.60;;
60464;SDS011;46314;52.392;9.758;2023-07-16T09:20:22;6.82;;;3.88;;
60464;SDS011;46314;52.392;9.758;2023-07-16T09:22:49;6.60;;;2.90;;
60464;SDS011;46314;52.392;9.758;2023-07-16T09:25:16;6.70;;;3.35;;
60464;SDS011;46314;52.392;9.758;2023-07-16T09:27:43;5.00;;;3.15;;
60464;SDS011;46314;52.392;9.758;2023-07-16T09:30:14;4.53;;;2.95;;
60464;SDS011;46314;52.392;9.758;2023-07-16T09:32:42;4.78;;;2.85;;
60464;SDS011;46314;52.392;9.758;2023-07-16T09:35:09;5.38;;;3.47;;
60464;SDS011;46314;52.392;9.758;2023-07-16T09:37:36;4.38;;;2.80;;
60464;SDS011;46314;52.392;9.758;2023-07-16T09:40:03;5.50;;;3.03;;
60464;SDS011;46314;52.392;9.758;2023-07-16T09:42:31;5.82;;;3.15;;
60464;SDS011;46314;52.392;9.758;2023-07-16T09:44:59;5.47;;;3.25;;
60464;SDS011;46314;52.392;9.758;2023-07-16T09:47:27;3.78;;;2.90;;
60464;SDS011;46314;52.392;9.758;2023-07-16T09:49:54;5.82;;;3.28;;
60464;SDS011;46314;52.392;9.758;2023-07-16T09:52:20;6.70;;;2.72;;
60464;SDS011;46314;52.392;9.758;2023-07-16T09:54:47;4.47;;;2.90;;
60464;SDS011;46314;52.392;9.758;2023-07-16T09:57:17;5.55;;;3.30;;
60464;SDS011;46314;52.392;9.758;2023-07-16T09:59:44;4.30;;;3.00;;
60464;SDS011;46314;52.392;9.758;2023-07-16T10:02:13;8.82;;;3.33;;
60464;SDS011;46314;52.392;9.758;2023-07-16T10:04:39;6.60;;;2.90;;
60464;SDS011;46314;52.392;9.758;2023-07-16T10:07:06;6.13;;;3.05;;
60464;SDS011;46314;52.392;9.758;2023-07-16T10:09:36;6.35;;;3.10;;
60464;SDS011;46314;52.392;9.758;2023-07-16T10:12:11;5.65;;;3.25;;
60464;SDS011;46314;52.392;9.758;2023-07-16T10:14:39;8.43;;;3.05;;
60464;SDS011;46314;52.392;9.758;2023-07-16T10:17:06;5.43;;;3.20;;
60464;SDS011;46314;52.392;9.758;2023-07-16T10:19:35;4.95;;;3.00;;
60464;SDS011;46314;52.392;9.758;2023-07-16T10:22:12;7.15;;;3.20;;
60464;SDS011;46314;52.392;9.758;2023-07-16T10:24:38;4.18;;;3.42;;
60464;SDS011;46314;52.392;9.758;2023-07-16T10:27:05;5.60;;;3.30;;
60464;SDS011;46314;52.392;9.758;2023-07-16T10:29:32;4.78;;;3.42;;
60464;SDS011;46314;52.392;9.758;2023-07-16T10:31:58;4.25;;;2.75;;
60464;SDS011;46314;52.392;9.758;2023-07-16T10:34:25;3.65;;;2.60;;
60464;SDS011;46314;52.392;9.758;2023-07-16T10:36:53;5.78;;;3.20;;
60464;SDS011;46314;52.392;9.758;2023-07-16T10:39:19;5.00;;;3.42;;
60464;SDS011;46314;52.392;9.758;2023-07-16T10:41:46;5.47;;;3.10;;
60464;SDS011;46314;52.392;9.758;2023-07-16T10:44:13;5.13;;;2.88;;
60464;SDS011;46314;52.392;9.758;2023-07-16T10:46:41;3.92;;;2.83;;
60464;SDS011;46314;52.392;9.758;2023-07-16T10:49:07;4.32;;;2.88;;
60464;SDS011;46314;52.392;9.758;2023-07-16T10:51:34;6.07;;;3.22;;
60464;SDS011;46314;52.392;9.758;2023-07-16T10:54:02;5.57;;;3.00;;
60464;SDS011;46314;52.392;9.758;2023-07-16T10:56:29;6.38;;;3.40;;
60464;SDS011;46314;52.392;9.758;2023-07-16T10:58:55;3.92;;;3.25;;
60464;SDS011;46314;52.392;9.758;2023-07-16T11:01:22;4.28;;;3.30;;
60464;SDS011;46314;52.392;9.758;2023-07-16T11:03:48;4.75;;;3.10;;
60464;SDS011;46314;52.392;9.758;2023-07-16T11:06:16;5.75;;;3.17;;
60464;SDS011;46314;52.392;9.758;2023-07-16T11:08:45;4.13;;;3.45;;
60464;SDS011;46314;52.392;9.758;2023-07-16T11:11:13;5.32;;;3.55;;
60464;SDS011;46314;52.392;9.758;2023-07-16T11:13:39;3.90;;;3.25;;
60464;SDS011;46314;52.392;9.758;2023-07-16T11:16:06;4.85;;;2.85;;
60464;SDS011;46314;52.392;9.758;2023-07-16T11:18:33;4.18;;;2.60;;
60464;SDS011;46314;52.392;9.758;2023-07-16T11:21:00;4.53;;;3.08;;
60464;SDS011;46314;52.392;9.758;2023-07-16T11:23:26;4.32;;;3.22;;
60464;SDS011;46314;52.392;9.758;2023-07-16T11:25:53;3.85;;;3.33;;
60464;SDS011;46314;52.392;9.758;2023-07-16T11:28:20;3.85;;;3.20;;
60464;SDS011;46314;52.392;9.758;2023-07-16T11:30:47;5.85;;;3.60;;
60464;SDS011;46314;52.392;9.758;2023-07-16T11:33:14;4.93;;;3.17;;
60464;SDS011;46314;52.392;9.758;2023-07-16T11:35:40;3.28;;;2.95;;
60464;SDS011;46314;52.392;9.758;2023-07-16T11:38:07;6.53;;;3.72;;
60464;SDS011;46314;52.392;9.758;2023-07-16T11:40:34;5.90;;;3.45;;
60464;SDS011;46314;52.392;9.758;2023-07-16T11:43:07;6.85;;;3.05;;
60464;SDS011;46314;52.392;9.758;2023-07-16T11:45:36;4.72;;;3.30;;
60464;SDS011;46314;52.392;9.758;2023-07-16T11:48:03;5.30;;;3.25;;
60464;SDS011;46314;52.392;9.758;2023-07-16T11:50:30;7.68;;;3.78;;
60464;SDS011;46314;52.392;9.758;2023-07-16T11:52:59;5.40;;;3.35;;
60464;SDS011;46314;52.392;9.758;2023-07-16T11:55:26;5.45;;;3.92;;
60464;SDS011;46314;52.392;9.758;2023-07-16T11:57:53;5.55;;;3.70;;
60464;SDS011;46314;52.392;9.758;2023-07-16T12:00:20;5.15;;;3.50;;
60464;SDS011;46314;52.392;9.758;2023-07-16T12:02:48;4.95;;;3.08;;
60464;SDS011;46314;52.392;9.758;2023-07-16T12:05:15;6.95;;;3.50;;
60464;SDS011;46314;52.392;9.758;2023-07-16T12:07:41;5.82;;;3.50;;
60464;SDS011;46314;52.392;9.758;2023-07-16T12:10:08;5.32;;;3.38;;
60464;SDS011;46314;52.392;9.758;2023-07-16T12:12:35;4.85;;;3.70;;
60464;SDS011;46314;52.392;9.758;2023-07-16T12:15:01;3.80;;;3.38;;
60464;SDS011;46314;52.392;9.758;2023-07-16T12:17:28;6.95;;;3.35;;
60464;SDS011;46314;52.392;9.758;2023-07-16T12:19:56;6.32;;;3.28;;
60464;SDS011;46314;52.392;9.758;2023-07-16T12:22:23;5.20;;;3.40;;
60464;SDS011;46314;52.392;9.758;2023-07-16T12:24:50;6.00;;;3.10;;
60464;SDS011;46314;52.392;9.758;2023-07-16T12:27:17;8.13;;;3.55;;
60464;SDS011;46314;52.392;9.758;2023-07-16T12:29:44;6.10;;;3.83;;
60464;SDS011;46314;52.392;9.758;2023-07-16T12:32:10;3.50;;;2.67;;
60464;SDS011;46314;52.392;9.758;2023-07-16T12:34:37;4.35;;;3.08;;
60464;SDS011;46314;52.392;9.758;2023-07-16T12:37:05;4.60;;;3.72;;
60464;SDS011;46314;52.392;9.758;2023-07-16T12:39:32;5.57;;;3.42;;
60464;SDS011;46314;52.392;9.758;2023-07-16T12:41:58;6.43;;;3.38;;
60464;SDS011;46314;52.392;9.758;2023-07-16T12:44:25;5.40;;;3.13;;
60464;SDS011;46314;52.392;9.758;2023-07-16T12:46:51;3.67;;;2.95;;
60464;SDS011;46314;52.392;9.758;2023-07-16T12:49:18;4.00;;;2.65;;
60464;SDS011;46314;52.392;9.758;2023-07-16T12:51:45;4.28;;;3.28;;
60464;SDS011;46314;52.392;9.758;2023-07-16T12:54:13;6.70;;;3.38;;
60464;SDS011;46314;52.392;9.758;2023-07-16T12:56:39;5.43;;;3.45;;
60464;SDS011;46314;52.392;9.758;2023-07-16T12:59:06;4.25;;;2.97;;
60464;SDS011;46314;52.392;9.758;2023-07-16T13:01:32;4.95;;;2.90;;
60464;SDS011;46314;52.392;9.758;2023-07-16T13:03:59;5.57;;;3.40;;
60464;SDS011;46314;52.392;9.758;2023-07-16T13:06:26;5.97;;;3.10;;
60464;SDS011;46314;52.392;9.758;2023-07-16T13:08:52;3.95;;;3.47;;
60464;SDS011;46314;52.392;9.758;2023-07-16T13:11:20;3.60;;;3.10;;
60464;SDS011;46314;52.392;9.758;2023-07-16T13:13:47;5.47;;;2.85;;
60464;SDS011;46314;52.392;9.758;2023-07-16T13:16:13;3.42;;;2.67;;
60464;SDS011;46314;52.392;9.758;2023-07-16T13:18:40;3.58;;;2.47;;
60464;SDS011;46314;52.392;9.758;2023-07-16T13:21:06;4.65;;;3.08;;
60464;SDS011;46314;52.392;9.758;2023-07-16T13:23:33;4.43;;;2.72;;
60464;SDS011;46314;52.392;9.758;2023-07-16T13:26:00;5.88;;;3.33;;
60464;SDS011;46314;52.392;9.758;2023-07-16T13:28:28;4.30;;;3.33;;
60464;SDS011;46314;52.392;9.758;2023-07-16T13:30:54;4.13;;;3.40;;
60464;SDS011;46314;52.392;9.758;2023-07-16T13:33:21;4.78;;;3.00;;
60464;SDS011;46314;52.392;9.758;2023-07-16T13:35:48;5.50;;;3.40;;
60464;SDS011;46314;52.392;9.758;2023-07-16T13:38:14;5.65;;;3.00;;
60464;SDS011;46314;52.392;9.758;2023-07-16T13:40:41;4.05;;;2.83;;
60464;SDS011;46314;52.392;9.758;2023-07-16T13:43:07;3.67;;;2.90;;
60464;SDS011;46314;52.392;9.758;2023-07-16T13:45:35;3.80;;;3.38;;
60464;SDS011;46314;52.392;9.758;2023-07-16T13:48:02;3.47;;;3.10;;
60464;SDS011;46314;52.392;9.758;2023-07-16T13:50:28;5.22;;;2.88;;
60464;SDS011;46314;52.392;9.758;2023-07-16T13:52:55;4.10;;;3.42;;
60464;SDS011;46314;52.392;9.758;2023-07-16T13:55:21;7.72;;;3.70;;
60464;SDS011;46314;52.392;9.758;2023-07-16T13:57:48;4.75;;;3.03;;
60464;SDS011;46314;52.392;9.758;2023-07-16T14:00:14;6.20;;;3.20;;
60464;SDS011;46314;52.392;9.758;2023-07-16T14:02:43;6.15;;;3.13;;
60464;SDS011;46314;52.392;9.758;2023-07-16T14:05:10;5.55;;;3.55;;
60464;SDS011;46314;52.392;9.758;2023-07-16T14:07:37;3.67;;;3.00;;
60464;SDS011;46314;52.392;9.758;2023-07-16T14:10:04;6.65;;;3.65;;
60464;SDS011;46314;52.392;9.758;2023-07-16T14:12:31;5.18;;;2.85;;
60464;SDS011;46314;52.392;9.758;2023-07-16T14:14:58;4.65;;;3.45;;
60464;SDS011;46314;52.392;9.758;2023-07-16T14:17:24;5.53;;;3.47;;
60464;SDS011;46314;52.392;9.758;2023-07-16T14:19:52;4.13;;;3.72;;
60464;SDS011;46314;52.392;9.758;2023-07-16T14:22:19;3.72;;;3.40;;
60464;SDS011;46314;52.392;9.758;2023-07-16T14:24:46;4.43;;;3.50;;
60464;SDS011;46314;52.392;9.758;2023-07-16T14:27:13;5.07;;;3.65;;
60464;SDS011;46314;52.392;9.758;2023-07-16T14:29:39;6.15;;;3.45;;
60464;SDS011;46314;52.392;9.758;2023-07-16T14:32:24;8.43;;;4.05;;
60464;SDS011;46314;52.392;9.758;2023-07-16T14:34:52;5.00;;;3.42;;
60464;SDS011;46314;52.392;9.758;2023-07-16T14:37:19;4.00;;;3.60;;
60464;SDS011;46314;52.392;9.758;2023-07-16T14:39:45;5.13;;;3.50;;
60464;SDS011;46314;52.392;9.758;2023-07-16T14:42:12;4.50;;;3.60;;
60464;SDS011;46314;52.392;9.758;2023-07-16T14:44:38;4.15;;;3.75;;
60464;SDS011;46314;52.392;9.758;2023-07-16T14:47:05;4.18;;;3.30;;
60464;SDS011;46314;52.392;9.758;2023-07-16T14:49:31;4.05;;;3.35;;